Create Tblcommutelog Verified Points Advance Search
| # | Trip ID | Id Commuter | Trip Date | Trip Num | Current Lat | Current Lng | Delta Distance | Current Time | Activity | Activity Confidence | Current Speed | |
|---|---|---|---|---|---|---|---|---|---|---|---|---|
| 70641 | 250304_781350_16649023_1422 | 781350 | (not set) | (not set) | 38.899668987967 | -77.005405412757 | 2.6479 | 2025-03-04 20:03:03.262 | still | 33 | -0.44703925898772 | |
| 70642 | 250304_781350_16649023_1422 | 781350 | (not set) | (not set) | 38.903703105825 | -77.00335443415 | 2.6479 | 2025-03-04 20:03:03.267 | still | 100 | -0.44703925898772 | |
| 70643 | 250304_781350_16649023_1422 | 781350 | (not set) | (not set) | 38.903944932063 | -77.003256195496 | 2.9977 | 2025-03-04 20:03:03.281 | still | 33 | -0.44703925898772 | |
| 70644 | 250304_733768_16598157_1458 | 733768 | (not set) | (not set) | 38.8629926 | -76.9979697 | 0.5835 | 2025-03-04 20:03:03.376 | in_vehicle | 100 | 4.1440539308162 | |
| 70645 | 250304_733768_16598157_1458 | 733768 | (not set) | (not set) | 38.8634178 | -76.9962399 | 0.6813 | 2025-03-04 20:03:16.221 | in_vehicle | 100 | 7.4163813066063 | |
| 70646 | 250304_733768_16598157_1458 | 733768 | (not set) | (not set) | 38.8641494 | -76.9939292 | 0.8157 | 2025-03-04 20:03:27.302 | in_vehicle | 100 | 10.116498430892 | |
| 70647 | 250304_733768_16598157_1458 | 733768 | (not set) | (not set) | 38.8661391 | -76.9915166 | 1.0048 | 2025-03-04 20:03:40.285 | in_vehicle | 100 | 11.149159119154 | |
| 70648 | 250304_753636_16619814_1459 | 753636 | (not set) | (not set) | 38.902655665083 | -77.039778057822 | 0.1835 | 2025-03-04 20:06:03.084 | still | 100 | -0.44703925898772 | |
| 70649 | 250304_753636_16619814_1459 | 753636 | (not set) | (not set) | 38.909172029686 | -77.043609631133 | 0 | 2025-03-04 20:06:03.108 | still | 100 | -0.44703925898772 | |
| 70650 | 250304_753636_16619814_1459 | 753636 | (not set) | (not set) | 38.909370904479 | -77.043727518199 | 0.6933 | 2025-03-04 20:06:08.808 | still | 100 | -0.44703925898772 | |
| 70651 | 250304_772964_0_1506 | 772964 | (not set) | (not set) | 38.899848790023 | -77.043475413034 | 0 | 2025-03-04 20:06:34.953 | unknown | 100 | -0.44703925898772 | |
| 70652 | 250304_772964_0_1506 | 772964 | (not set) | (not set) | 38.899848790023 | -77.043475413034 | 0 | 2025-03-04 20:06:34.99 | unknown | 100 | -0.44703925898772 | |
| 70653 | 250304_781350_16649023_1422 | 781350 | (not set) | (not set) | 38.903438655499 | -77.003456490993 | 2.9977 | 2025-03-04 20:08:15.223 | still | 33 | -0.44703925898772 | |
| 70654 | 250306_780240_16415311_0914 | 780240 | (not set) | (not set) | 39.0127212 | -76.9065204 | 6.3812 | 2025-03-06 15:02:32.38 | in_vehicle | 100 | 5.8025695816607 | |
| 70655 | 250306_780240_16415311_0914 | 780240 | (not set) | (not set) | 39.0091422 | -76.9046574 | 6.7056 | 2025-03-06 15:02:32.399 | in_vehicle | 100 | 5.7846880113012 | |
| 70656 | 250306_780240_16415311_0914 | 780240 | (not set) | (not set) | 39.0075486 | -76.905891 | 6.834 | 2025-03-06 15:02:32.435 | in_vehicle | 100 | 5.5835203447567 | |
| 70657 | 250306_780240_16415311_0914 | 780240 | (not set) | (not set) | 39.0063006 | -76.9067883 | 6.9327 | 2025-03-06 15:02:32.464 | in_vehicle | 100 | 5.4047046411616 | |
| 70658 | 250306_780240_16415311_0914 | 780240 | (not set) | (not set) | 39.0038575 | -76.9086459 | 7.1287 | 2025-03-06 15:02:32.504 | in_vehicle | 100 | 5.6416354484251 | |
| 70659 | 250306_780240_16415311_0914 | 780240 | (not set) | (not set) | 38.9997748 | -76.9116927 | 7.455 | 2025-03-06 15:02:32.58 | in_vehicle | 100 | 5.3197671819539 | |
| 70660 | 250306_780240_16415311_0914 | 780240 | (not set) | (not set) | 38.9970284 | -76.9070162 | 7.8418 | 2025-03-06 15:02:32.645 | in_vehicle | 100 | 5.46281974483 |